Rechercher aéroport 
image banner adimage banner adimage banner ad
image banner ad

6CN6 - Kaiser Permanente South Sacramento

Situé à Sacramento, United States

ICAO - 6CN6, IATA -

Données fournies par Airmate  

Information générale

Coordonnées: N38°28'11" W121°25'15"
Élévation : 28 feet MSL.
 
Voir autres Aéroports à California

Données opérationnelles

Special qualification required
Heure actuelle UTC:
Heure actuelle locale:
Météo à : KSAC - Sacramento Executive ( 8 km )
METAR: KSAC 262153Z 20009G20KT 10SM CLR 29/07 A2984 RMK AO2 SLP105 T02890072
TAF: KSAC 261720Z 2618/2718 18006KT P6SM BKN200 FM262200 21011G20KT P6SM SCT150 BKN200 FM270800 19008KT P6SM BKN150
Voir NOTAMs / SUP AIP / TFR affectant cet aéroport [VIEW]
Fréquences de communication: [VIEW]

Pistes:

Coordonnées de l'aéroport

Adresse: Sacramento United States

Vue satellite de 6CN6